Lumberton Municipal Airport
KLBT : now visible

Airfield :











YOU CAN JOIN US ON...

 
LOGIN :

Register | Disclaimer

   EN    FR    IT 

 









Legend :    VFR   Marginal VFR   IFR   Intensive IFR   Very Intensive IFR
Visi :
Ceiling :
>= 8 km
>= 3000ft
5 to 8 km
1000 to 3000 ft
1500m to 5 km
500 to 1000 ft
800 to 1500m
200 to 500 ft
< 800m
< 200 ft
Symbols :   Thunderstorms  Fog  Heavy snow  Heavy precipitations  Wind > 20 kt






- Airport Elevation : 126 ft


KLBT - Lumberton Municipal

CURRENT METAR :
  • 250556Z AUTO 16004KT 10SM CLR 23/22 A2989 RMK AO2 SLP121 T02330222 10339 20233 50008

EXPIRED METARs :
  • 250456Z AUTO 16003KT 10SM SCT095 24/22 A2990 RMK AO2 SLP122 T02440222 403670244
  • 250356Z AUTO 00000KT 10SM CLR 25/22 A2988 RMK AO2 SLP114 T02500222
  • 250256Z AUTO 21004KT 10SM CLR 26/23 A2987 RMK AO2 SLP113 T02610228 53030
  • 250156Z AUTO 12003KT 10SM CLR 27/23 A2984 RMK AO2 LTG DSNT S AND SW SLP102 T02720228

TAF KLBT
Valid from the 25 at 06:00 until the 26 at 06:00 UTC


250520Z 2506/2606 00000KT P6SM BKN100
FM250900 06003KT 4SM BR SCT005
TEMPO 2509/2513 1SM BR
FM251300 08008KT P6SM SKC
FM252000 11009KT P6SM SCT060
FM260200 16002KT P6SM SKC
KZDC FIR / North America



MET'MAP, your aeronautical weather chart ! - Copyright ORBIFLY December 2007 - Disclaimer

ORBIFLY MET'MAP TEAM :

Programming & Development : Alexandra Zaïnal
Original concept : Baudouin d'Aumeries
Technical & hardware support : Manuel Goepfert
Assistance : Marc-Olivier Méhu




SOURCES & CREDITS :

   NOAA       Earth
Advisory